UDYZ/EVN METAR and TAF weather

Enter ICAO airport designator
Station Type Date Time Source
UDYZ METAR 2022/11/27 08:30 UTC NOAA

UDYZ 270830Z VRB02KT 9999 FEW046 12/06 Q1019 R09/190065 NOSIG


Station Type Date Time Source
UDYZ Decoded METAR 2022/11/27 08:30 UTC NOAA

Station name not available
Nov 27, 2022 - 03:30 AM EST / 2022.11.27 0830 UTC
Wind: Variable at 2 MPH (2 KT):0
Visibility: greater than 7 mile(s):0
Sky conditions: mostly clear
Temperature: 53 F (12 C)
Dew Point: 42 F (6 C)
Relative Humidity: 66%
Pressure (altimeter): 30.09 in. Hg (1019 hPa)
ob: UDYZ 270830Z VRB02KT 9999 FEW046 12/06 Q1019 R09/190065 NOSIG
cycle: 8

Station Type Date Time Source
UDYZ TAF 2022/11/27 06:00 UTC NOAA

TAF UDYZ 270500Z 2706/2806 VRB04KT 6000 SCT040
TEMPO 2706/2709 0600 FG VV003

Example: see airport list